Time;durP1;ratioP1;P1;durP2;ratioP2;P2;SDS_P1;SDS_P2;PMS_P1;PMS_P2;Temp;Humidity;BMP_temperature;BMP_pressure;BME280_temperature;BME280_humidity;BME280_pressure;Samples;Min_cycle;Max_cycle;Signal;HPM_P1;HPM_P2
2021/10/19 04:52:29;;;;;;;;;;;;;;;2.59;93.77;100250.50;4981422;28;19953;-77
2021/10/19 04:54:54;;;;;;;;;;;;;;;2.62;93.62;100250.50;4983667;28;19921;-77
2021/10/19 04:57:19;;;;;;;;;;;;;;;2.62;94.42;100250.50;4983340;28;19960;-78
2021/10/19 04:59:45;;;;;;;;;;;;;;;2.59;95.06;100255.75;4982865;28;19925;-77
2021/10/19 05:02:10;;;;;;;;;;;;;;;2.47;95.31;100264.50;4983155;28;20009;-77
2021/10/19 05:04:35;;;;;;;;;;;;;;;2.43;95.06;100254.91;4982107;28;19929;-77
2021/10/19 05:07:00;;;;;;;;;;;;;;;2.43;95.02;100243.59;4983134;28;19925;-79
2021/10/19 05:09:25;;;;;;;;;;;;;;;2.40;94.63;100239.22;4982845;28;19972;-77
2021/10/19 05:11:51;;;;;;;;;;;;;;;2.34;94.49;100234.84;4983131;28;20353;-78
2021/10/19 05:14:16;;;;;;;;;;;;;;;2.36;94.39;100232.25;4983347;28;19988;-76
2021/10/19 05:16:41;;;;;;;;;;;;;;;2.28;93.73;100231.38;4983201;28;19919;-77
2021/10/19 05:19:06;;;;;;;;;;;;;;;2.26;92.94;100248.84;5003840;28;19929;-79
2021/10/19 05:21:32;;;;;;;;;;;;;;;2.19;92.76;100242.75;4982718;28;20376;-79
2021/10/19 05:23:57;;;;;;;;;;;;;;;2.14;92.65;100241.88;4981987;28;20008;-80
2021/10/19 05:26:22;;;;;;;;;;;;;;;2.08;92.28;100236.66;4982642;28;19919;-79
2021/10/19 05:28:48;;;;;;;;;;;;;;;2.10;92.06;100238.38;4981624;28;20281;-77
2021/10/19 05:31:13;;;;;;;;;;;;;;;2.06;91.57;100238.38;4982159;28;19925;-77
2021/10/19 05:33:38;;;;;;;;;;;;;;;2.07;91.70;100227.06;4985065;28;19922;-76
2021/10/19 05:36:04;;;;;;;;;;;;;;;2.00;91.27;100227.06;4985493;28;19918;-77
2021/10/19 05:38:33;;;;;;;;;;;;;;;2.00;91.54;100237.53;4986392;28;19922;-76
2021/10/19 05:40:58;;;;;;;;;;;;;;;1.95;91.03;100236.66;4986984;28;19917;-79
2021/10/19 05:43:23;;;;;;;;;;;;;;;1.89;91.24;100220.97;4986764;28;20362;-76
2021/10/19 05:45:48;;;;;;;;;;;;;;;1.92;90.96;100218.38;4986177;28;19926;-76
2021/10/19 05:48:13;;;;;;;;;;;;;;;1.91;90.64;100214.00;4986591;28;20000;-77
2021/10/19 05:50:39;;;;;;;;;;;;;;;1.94;94.30;100210.53;4985519;28;19929;-77
2021/10/19 05:53:04;;;;;;;;;;;;;;;2.25;99.28;100206.13;4986509;28;19941;-78
2021/10/19 05:55:29;;;;;;;;;;;;;;;2.25;99.49;100197.41;4986173;28;19929;-77
2021/10/19 05:57:54;;;;;;;;;;;;;;;2.10;98.91;100191.31;4986202;28;19972;-77
2021/10/19 06:00:20;;;;;;;;;;;;;;;2.08;98.63;100190.47;4986738;28;19922;-77
2021/10/19 06:02:45;;;;;;;;;;;;;;;2.08;98.81;100189.63;4986261;28;19976;-77
2021/10/19 06:05:10;;;;;;;;;;;;;;;1.98;97.92;100188.75;4984450;28;20397;-79
2021/10/19 06:07:35;;;;;;;;;;;;;;;1.94;97.87;100182.63;4986274;28;20281;-77
2021/10/19 06:10:01;;;;;;;;;;;;;;;1.93;97.92;100191.38;4986667;28;19930;-78
2021/10/19 06:12:27;;;;;;;;;;;;;;;1.81;97.92;100197.47;4986458;28;20273;-79
2021/10/19 06:14:52;;;;;;;;;;;;;;;1.81;97.84;100196.59;4986177;28;19922;-79
2021/10/19 06:17:18;;;;;;;;;;;;;;;1.93;97.66;100190.47;4986436;28;19925;-77
2021/10/19 06:19:43;;;;;;;;;;;;;;;1.83;96.44;100199.22;4984803;28;19918;-76
2021/10/19 06:22:08;;;;;;;;;;;;;;;1.74;96.34;100200.97;4991663;28;19922;-77
2021/10/19 06:24:33;;;;;;;;;;;;;;;1.71;96.00;100192.22;4985817;28;19922;-78
2021/10/19 06:26:59;;;;;;;;;;;;;;;1.76;96.43;100198.34;4986356;28;20320;-77
2021/10/19 06:29:24;;;;;;;;;;;;;;;1.81;96.33;100207.91;4984668;28;20285;-77
2021/10/19 06:31:49;;;;;;;;;;;;;;;1.62;95.39;100206.19;4985840;28;19918;-79
2021/10/19 06:34:14;;;;;;;;;;;;;;;1.67;95.63;100200.97;4984114;28;20025;-78
2021/10/19 06:36:40;;;;;;;;;;;;;;;1.67;95.38;100207.03;4985848;28;19922;-78
2021/10/19 06:39:05;;;;;;;;;;;;;;;1.73;96.34;100203.59;4986061;28;20024;-76
2021/10/19 06:41:31;;;;;;;;;;;;;;;1.69;95.48;100209.66;4985484;28;19925;-78
2021/10/19 06:43:56;;;;;;;;;;;;;;;1.61;95.27;100207.94;4985126;28;19925;-78
2021/10/19 06:46:22;;;;;;;;;;;;;;;1.50;94.52;100211.38;4985885;28;19918;-79
2021/10/19 06:48:47;;;;;;;;;;;;;;;1.47;94.24;100214.00;4985673;28;19922;-79
2021/10/19 06:51:12;;;;;;;;;;;;;;;1.46;93.62;100215.75;4983796;28;20357;-77
2021/10/19 06:53:37;;;;;;;;;;;;;;;1.70;95.96;100217.50;4985026;28;20535;-78
2021/10/19 06:56:03;;;;;;;;;;;;;;;1.88;97.64;100214.00;4985789;28;19917;-78
2021/10/19 06:58:28;;;;;;;;;;;;;;;1.95;99.08;100200.06;4985578;28;20012;-77
2021/10/19 07:00:54;;;;;;;;;;;;;;;2.14;99.80;100205.28;4985030;28;19918;-77
2021/10/19 07:03:19;;;;;;;;;;;;;;;2.26;100.00;100193.91;4985291;28;20351;-77
2021/10/19 07:05:45;;;;;;;;;;;;;;;2.47;100.00;100201.72;4984142;28;19922;-76
2021/10/19 07:08:10;;;;;;;;;;;;;;;2.59;100.00;100198.19;4985126;28;20269;-76
2021/10/19 07:10:36;;;;;;;;;;;;;;;2.75;100.00;100204.22;4984837;28;20353;-76
2021/10/19 07:13:02;;;;;;;;;;;;;;;2.81;100.00;100198.97;4984689;28;20266;-78
2021/10/19 07:15:34;;;;;;;;;;;;;;;2.84;100.00;100204.19;4984848;28;19929;-77
2021/10/19 07:17:59;;;;;;;;;;;;;;;2.93;100.00;100210.25;4984574;28;20042;-77
2021/10/19 07:20:24;;;;;;;;;;;;;;;2.90;100.00;100219.88;4983838;28;19966;-79
2021/10/19 07:56:53;;;;;;;;;;;;;;;3.42;100.00;100215.22;5685532;23;20392;-78
2021/10/19 07:59:18;;;;;;;;;;;;;;;3.44;100.00;100216.91;5020967;28;19925;-79
2021/10/19 08:01:43;;;;;;;;;;;;;;;3.49;100.00;100210.78;5022355;28;19925;-78
2021/10/19 08:04:09;;;;;;;;;;;;;;;3.53;100.00;100221.25;5021949;28;19921;-78
2021/10/19 08:06:35;;;;;;;;;;;;;;;3.54;100.00;100217.75;5023383;28;20339;-80
2021/10/19 08:09:02;;;;;;;;;;;;;;;3.58;100.00;100208.09;5012496;28;19921;-79
2021/10/19 08:11:27;;;;;;;;;;;;;;;3.61;100.00;100213.31;5012060;28;19960;-80
2021/10/19 08:13:56;;;;;;;;;;;;;;;3.61;100.00;100203.72;5017770;28;19965;-78
2021/10/19 08:16:21;;;;;;;;;;;;;;;3.67;100.00;100208.03;5002075;28;19926;-80
2021/10/19 08:18:47;;;;;;;;;;;;;;;4.55;100.00;100205.44;5003051;28;19917;-90
2021/10/19 08:21:12;;;;;;;;;;;;;;;4.93;100.00;100203.22;5003300;28;19921;-78
2021/10/19 08:23:37;;;;;;;;;;;;;;;4.36;100.00;100212.63;5003075;28;19972;-78
2021/10/19 08:26:03;;;;;;;;;;;;;;;4.29;100.00;100215.34;5011612;28;20012;-77
2021/10/19 08:28:31;;;;;;;;;;;;;;;4.34;100.00;100214.41;5012863;28;20372;-78
2021/10/19 08:30:57;;;;;;;;;;;;;;;4.38;100.00;100220.50;5012735;28;20390;-77
2021/10/19 08:33:22;;;;;;;;;;;;;;;4.35;100.00;100215.28;5012597;28;20019;-80
2021/10/19 08:35:47;;;;;;;;;;;;;;;6.42;100.00;100209.66;5012787;28;20036;-86
2021/10/19 08:38:13;;;;;;;;;;;;;;;6.65;100.00;100209.19;5012835;28;19963;-79
2021/10/19 08:40:48;;;;;;;;;;;;;;;5.25;100.00;100201.91;5010915;28;20420;-80
2021/10/19 08:43:17;;;;;;;;;;;;;;;4.79;100.00;100205.16;5011763;28;20202;-80
2021/10/19 08:45:42;;;;;;;;;;;;;;;4.65;100.00;100205.31;5001725;28;19952;-81
2021/10/19 08:48:09;;;;;;;;;;;;;;;4.51;100.00;100206.34;5012361;28;19918;-81
2021/10/19 08:50:34;;;;;;;;;;;;;;;4.46;100.00;100218.66;4998932;28;20014;-79
2021/10/19 08:52:59;;;;;;;;;;;;;;;4.46;100.00;100208.16;5011940;28;20392;-81
2021/10/19 08:55:25;;;;;;;;;;;;;;;4.43;100.00;100212.56;5012265;28;19936;-81
2021/10/19 08:57:50;;;;;;;;;;;;;;;4.39;100.00;100214.38;5018241;28;19927;-81
2021/10/19 09:00:15;;;;;;;;;;;;;;;4.35;100.00;100215.28;5013903;28;19932;-80
2021/10/19 09:02:42;;;;;;;;;;;;;;;4.36;100.00;100214.41;5031604;28;20360;-81
2021/10/19 09:05:13;;;;;;;;;;;;;;;4.35;100.00;100204.78;5013587;28;19929;-81
2021/10/19 09:07:39;;;;;;;;;;;;;;;4.29;100.00;100212.72;5031554;28;19999;-79
2021/10/19 09:10:14;;;;;;;;;;;;;;;4.34;100.00;100211.78;5031658;28;20024;-81
2021/10/19 09:12:49;;;;;;;;;;;;;;;4.33;100.00;100202.16;5030614;28;20316;-81
2021/10/19 09:15:15;;;;;;;;;;;;;;;4.34;100.00;100222.28;5030764;28;19925;-80
2021/10/19 09:17:40;;;;;;;;;;;;;;;4.32;100.00;100203.06;5031441;28;19921;-81
2021/10/19 09:20:15;;;;;;;;;;;;;;;4.36;100.00;100204.75;5032009;28;19932;-80
2021/10/19 09:23:12;;;;;;;;;;;;;;;4.31;100.00;100208.34;5031591;28;19917;-79
2021/10/19 09:25:39;;;;;;;;;;;;;;;4.34;100.00;100205.66;4999944;28;20016;-81
2021/10/19 09:28:06;;;;;;;;;;;;;;;4.31;100.00;100205.72;5029885;28;20378;-80
2021/10/19 09:30:33;;;;;;;;;;;;;;;4.31;100.00;100206.56;5031683;28;20361;-81
2021/10/19 09:32:58;;;;;;;;;;;;;;;4.33;100.00;100204.78;5031721;28;19917;-80
2021/10/19 09:35:23;;;;;;;;;;;;;;;4.32;100.00;100210.06;5030993;28;19975;-81
2021/10/19 09:37:55;;;;;;;;;;;;;;;4.36;100.00;100215.25;5031702;28;20027;-80
2021/10/19 09:40:28;;;;;;;;;;;;;;;4.37;100.00;100216.13;5031276;28;19933;-82
2021/10/19 09:43:00;;;;;;;;;;;;;;;4.39;100.00;100209.13;5030487;28;20365;-79
2021/10/19 09:45:26;;;;;;;;;;;;;;;4.39;100.00;100209.13;5030666;28;20380;-80
2021/10/19 09:47:51;;;;;;;;;;;;;;;4.39;100.00;100211.75;5031604;28;19956;-80
2021/10/19 09:50:17;;;;;;;;;;;;;;;4.44;100.00;100217.81;5031427;28;19921;-82
2021/10/19 09:52:43;;;;;;;;;;;;;;;4.44;100.00;100214.31;5031100;28;19925;-82
2021/10/19 09:55:12;;;;;;;;;;;;;;;4.44;100.00;100219.56;5031336;28;20375;-79
2021/10/19 09:57:38;;;;;;;;;;;;;;;4.48;100.00;100216.91;5030188;28;20621;-81
2021/10/19 10:00:04;;;;;;;;;;;;;;;4.47;100.00;100222.16;5031482;28;20020;-82
2021/10/19 10:02:30;;;;;;;;;;;;;;;4.47;100.00;100228.28;5031454;28;19921;-80
2021/10/19 10:04:55;;;;;;;;;;;;;;;4.45;100.00;100224.81;5013449;28;19972;-82
2021/10/19 10:07:22;;;;;;;;;;;;;;;4.48;100.00;100230.03;5031394;28;19925;-82
2021/10/19 10:09:48;;;;;;;;;;;;;;;4.48;100.00;100224.78;5012455;28;20589;-82
2021/10/19 10:12:13;;;;;;;;;;;;;;;4.50;100.00;100223.00;5011963;28;20387;-81
2021/10/19 10:14:49;;;;;;;;;;;;;;;4.52;100.00;100215.97;5030816;28;19988;-82
2021/10/19 10:17:14;;;;;;;;;;;;;;;4.52;100.00;100221.22;5031308;28;19917;-80
2021/10/19 10:19:40;;;;;;;;;;;;;;;4.54;100.00;100219.44;5014360;28;19924;-82
2021/10/19 10:22:14;;;;;;;;;;;;;;;4.55;100.00;100221.19;5016172;28;19932;-80
2021/10/19 10:24:41;;;;;;;;;;;;;;;4.57;100.00;100215.06;5034550;28;20380;-81
2021/10/19 10:27:17;;;;;;;;;;;;;;;4.63;100.00;100212.38;5014623;28;19928;-81
2021/10/19 10:29:47;;;;;;;;;;;;;;;4.62;100.00;100213.22;5034206;28;19917;-80
2021/10/19 10:32:20;;;;;;;;;;;;;;;4.65;100.00;100210.56;5016953;28;20284;-80
2021/10/19 10:34:45;;;;;;;;;;;;;;;4.64;100.00;100214.06;5016469;28;19968;-79
2021/10/19 10:37:11;;;;;;;;;;;;;;;4.67;100.00;100211.41;5016730;28;19925;-79
2021/10/19 10:39:46;;;;;;;;;;;;;;;4.67;100.00;100209.66;5010359;28;20011;-80
2021/10/19 10:42:12;;;;;;;;;;;;;;;4.69;100.00;100202.66;5015008;28;19921;-82
2021/10/19 10:44:38;;;;;;;;;;;;;;;4.66;100.00;100196.53;5034430;28;20395;-80
2021/10/19 10:47:04;;;;;;;;;;;;;;;4.71;100.00;100197.38;5034120;28;20011;-82
2021/10/19 10:49:31;;;;;;;;;;;;;;;4.72;100.00;100193.84;5034197;28;19928;-81
2021/10/19 10:51:56;;;;;;;;;;;;;;;4.73;100.00;100195.59;5034152;28;19917;-82
2021/10/19 10:54:22;;;;;;;;;;;;;;;4.71;100.00;100195.63;5034223;28;19929;-81
2021/10/19 10:56:51;;;;;;;;;;;;;;;4.73;100.00;100192.97;5032365;28;20296;-81
2021/10/19 10:59:23;;;;;;;;;;;;;;;4.72;100.00;100185.97;5034077;28;19921;-82
2021/10/19 11:01:48;;;;;;;;;;;;;;;4.77;100.00;100191.16;5016155;28;19933;-81
2021/10/19 11:04:14;;;;;;;;;;;;;;;4.78;100.00;100185.91;5015818;28;19929;-81
2021/10/19 11:06:40;;;;;;;;;;;;;;;4.80;100.00;100184.13;5033446;28;20019;-79
2021/10/19 11:09:13;;;;;;;;;;;;;;;4.82;100.00;100181.47;4991759;28;20128;-80
2021/10/19 11:11:40;;;;;;;;;;;;;;;4.83;100.00;100180.59;5014237;28;20004;-80
2021/10/19 11:14:06;;;;;;;;;;;;;;;4.90;100.00;100174.38;5016238;28;20014;-80
2021/10/19 11:16:37;;;;;;;;;;;;;;;4.87;100.00;100175.28;5015594;28;20269;-80
2021/10/19 11:19:04;;;;;;;;;;;;;;;4.91;100.00;100176.09;5015363;28;19932;-81
2021/10/19 11:21:30;;;;;;;;;;;;;;;4.91;100.00;100176.09;5015488;28;19917;-82
2021/10/19 11:23:55;;;;;;;;;;;;;;;4.93;100.00;100179.59;5033934;28;19925;-81
2021/10/19 11:26:21;;;;;;;;;;;;;;;4.98;100.00;100171.63;5014420;28;19917;-80
2021/10/19 11:28:47;;;;;;;;;;;;;;;4.96;100.00;100173.41;5015646;28;20379;-81
2021/10/19 11:31:12;;;;;;;;;;;;;;;4.94;100.00;100167.31;5015962;28;19917;-82
2021/10/19 11:33:38;;;;;;;;;;;;;;;4.96;100.00;100165.53;5015409;28;19936;-80
2021/10/19 11:36:04;;;;;;;;;;;;;;;4.96;100.00;100166.41;5015602;28;20005;-81
2021/10/19 11:38:30;;;;;;;;;;;;;;;4.98;100.00;100166.38;5015172;28;19918;-81
2021/10/19 11:41:12;;;;;;;;;;;;;;;4.99;100.00;100160.25;5032305;28;19947;-82
2021/10/19 11:43:39;;;;;;;;;;;;;;;4.99;100.00;100168.13;5033027;28;20331;-82
2021/10/19 11:46:08;;;;;;;;;;;;;;;5.00;100.00;100162.00;5032437;28;19921;-80
2021/10/19 11:48:34;;;;;;;;;;;;;;;5.00;100.00;100162.00;5032962;28;19920;-81
2021/10/19 11:51:01;;;;;;;;;;;;;;;5.01;100.00;100155.84;5033479;28;19925;-82
2021/10/19 11:53:27;;;;;;;;;;;;;;;5.04;100.00;100153.16;5014808;28;19925;-80
2021/10/19 11:55:55;;;;;;;;;;;;;;;5.00;100.00;100143.59;5032005;28;19923;-81
2021/10/19 11:58:23;;;;;;;;;;;;;;;5.01;100.00;100145.31;5032700;28;19972;-79
2021/10/19 12:00:51;;;;;;;;;;;;;;;5.03;100.00;100138.31;5032748;28;20368;-78
2021/10/19 12:03:16;;;;;;;;;;;;;;;5.06;100.00;100138.28;5031817;28;19925;-79
2021/10/19 12:05:42;;;;;;;;;;;;;;;5.06;100.00;100140.91;5032097;28;19928;-81
2021/10/19 12:08:09;;;;;;;;;;;;;;;5.09;100.00;100128.56;5033039;28;19956;-81
2021/10/19 12:10:34;;;;;;;;;;;;;;;5.11;100.00;100125.94;5032357;28;19963;-81
2021/10/19 12:13:10;;;;;;;;;;;;;;;5.11;100.00;100133.81;5013229;28;19921;-80
2021/10/19 12:15:37;;;;;;;;;;;;;;;5.09;100.00;100123.31;5032358;28;19931;-81
2021/10/19 12:18:03;;;;;;;;;;;;;;;5.11;100.00;100123.31;5031974;28;20036;-80
2021/10/19 12:20:33;;;;;;;;;;;;;;;5.15;100.00;100122.34;5032560;28;20367;-81
2021/10/19 12:23:00;;;;;;;;;;;;;;;5.16;100.00;100126.72;5014236;28;19932;-79
2021/10/19 12:25:26;;;;;;;;;;;;;;;5.17;100.00;100120.59;5014414;28;20429;-79
2021/10/19 12:27:51;;;;;;;;;;;;;;;5.19;100.00;100115.31;5013327;28;19917;-79
2021/10/19 12:30:17;;;;;;;;;;;;;;;5.20;100.00;100114.41;5032359;28;20000;-81
2021/10/19 12:32:43;;;;;;;;;;;;;;;5.21;100.00;100101.25;5032340;28;19928;-80
2021/10/19 12:35:09;;;;;;;;;;;;;;;5.20;100.00;100103.88;5013394;28;19921;-80
2021/10/19 12:37:35;;;;;;;;;;;;;;;5.22;100.00;100104.75;5032283;28;20420;-82
2021/10/19 12:40:02;;;;;;;;;;;;;;;5.23;100.00;100098.59;5013866;28;20031;-79
2021/10/19 12:42:28;;;;;;;;;;;;;;;5.26;100.00;100095.91;5030067;28;20007;-80
2021/10/19 12:44:53;;;;;;;;;;;;;;;5.28;100.00;100097.63;5032181;28;20713;-79
2021/10/19 12:47:18;;;;;;;;;;;;;;;5.28;100.00;100097.63;5014052;28;19954;-79
2021/10/19 12:49:44;;;;;;;;;;;;;;;5.28;100.00;100095.00;5013929;28;19948;-80
2021/10/19 12:52:10;;;;;;;;;;;;;;;5.34;100.00;100094.03;5031182;28;19971;-79
2021/10/19 12:54:35;;;;;;;;;;;;;;;5.37;100.00;100095.75;5032095;28;19972;-81
2021/10/19 12:57:00;;;;;;;;;;;;;;;5.39;100.00;100083.44;5030865;28;19917;-79
2021/10/19 12:59:25;;;;;;;;;;;;;;;5.37;100.00;100079.97;5014049;28;19925;-79
2021/10/19 13:01:58;;;;;;;;;;;;;;;5.40;100.00;100079.94;5032012;28;20401;-79
2021/10/19 13:04:24;;;;;;;;;;;;;;;5.37;100.00;100085.22;5013822;28;19960;-80
2021/10/19 13:06:49;;;;;;;;;;;;;;;5.41;100.00;100079.03;5031948;28;19963;-80
2021/10/19 13:09:16;;;;;;;;;;;;;;;5.40;100.00;100072.03;5031321;28;19924;-79
2021/10/19 13:11:43;;;;;;;;;;;;;;;5.41;100.00;100076.41;5011893;28;20384;-80
2021/10/19 13:14:08;;;;;;;;;;;;;;;5.45;100.00;100078.09;5013298;28;19983;-82
2021/10/19 13:16:34;;;;;;;;;;;;;;;5.44;100.00;100071.06;5008216;28;19924;-81
2021/10/19 13:18:59;;;;;;;;;;;;;;;5.55;100.00;100077.03;5013913;28;20443;-82
2021/10/19 13:21:24;;;;;;;;;;;;;;;5.66;100.00;100071.56;5031686;28;19925;-81
2021/10/19 13:23:49;;;;;;;;;;;;;;;5.82;100.00;100072.16;5031663;28;19960;-80
2021/10/19 13:26:15;;;;;;;;;;;;;;;5.97;100.00;100061.38;5029972;28;19925;-81
2021/10/19 13:28:40;;;;;;;;;;;;;;;6.10;100.00;100056.75;5031435;28;19921;-79
2021/10/19 13:31:06;;;;;;;;;;;;;;;6.22;100.00;100063.50;5031809;28;20029;-80
2021/10/19 13:33:31;;;;;;;;;;;;;;;6.27;100.00;100059.03;5030845;28;19921;-79
2021/10/19 13:36:00;;;;;;;;;;;;;;;6.34;100.00;100058.00;5030461;28;20498;-81
2021/10/19 13:38:25;;;;;;;;;;;;;;;6.39;100.00;100055.28;5030764;28;20019;-79
2021/10/19 13:40:51;;;;;;;;;;;;;;;6.47;100.00;100055.09;5029951;28;20360;-79
2021/10/19 13:43:16;;;;;;;;;;;;;;;6.50;100.00;100044.50;5013556;28;19944;-81
2021/10/19 13:45:42;;;;;;;;;;;;;;;6.53;100.00;100045.31;5031640;28;20423;-80
2021/10/19 13:48:08;;;;;;;;;;;;;;;6.59;100.00;100048.69;5030914;28;20024;-79
2021/10/19 13:50:33;;;;;;;;;;;;;;;6.61;100.00;100042.50;5031282;28;20019;-79
2021/10/19 13:52:58;;;;;;;;;;;;;;;6.66;100.00;100035.38;5031200;28;19929;-80
2021/10/19 13:55:24;;;;;;;;;;;;;;;6.69;100.00;100039.72;5015689;28;20008;-80
2021/10/19 13:57:49;;;;;;;;;;;;;;;6.76;100.00;100035.16;5033843;28;19928;-80
2021/10/19 14:00:14;;;;;;;;;;;;;;;6.79;100.00;100030.69;5017769;28;19924;-80
2021/10/19 14:02:40;;;;;;;;;;;;;;;6.83;100.00;100026.19;5017071;28;19921;-80
2021/10/19 14:05:06;;;;;;;;;;;;;;;6.86;100.00;100029.66;5016995;28;19932;-81
2021/10/19 14:07:31;;;;;;;;;;;;;;;6.89;100.00;100024.31;5034761;28;20279;-81
2021/10/19 14:09:57;;;;;;;;;;;;;;;6.89;100.00;100015.50;5035069;28;19932;-82
2021/10/19 14:12:22;;;;;;;;;;;;;;;6.91;100.00;100014.59;5033829;28;20003;-81
2021/10/19 14:14:48;;;;;;;;;;;;;;;6.93;100.00;100011.06;5035050;28;20376;-80
2021/10/19 14:17:13;;;;;;;;;;;;;;;6.97;100.00;100024.09;5017064;28;20386;-81
2021/10/19 14:19:39;;;;;;;;;;;;;;;6.96;100.00;100017.13;5035000;28;19920;-81
2021/10/19 14:22:07;;;;;;;;;;;;;;;7.01;100.00;100009.09;5034898;28;19944;-79
2021/10/19 14:24:32;;;;;;;;;;;;;;;7.04;100.00;100020.41;5034934;28;19921;-82
2021/10/19 14:26:57;;;;;;;;;;;;;;;5.82;100.00;100023.09;5033584;28;19921;-81
2021/10/19 14:29:23;;;;;;;;;;;;;;;4.74;100.00;100018.81;5033714;28;20440;-80
2021/10/19 14:31:49;;;;;;;;;;;;;;;4.25;100.00;100016.91;5016754;28;19924;-80
2021/10/19 14:34:19;;;;;;;;;;;;;;;3.97;100.00;100009.38;5016565;28;19969;-79
2021/10/19 14:36:45;;;;;;;;;;;;;;;3.76;100.00;100006.09;5016617;28;20388;-80
2021/10/19 14:39:10;;;;;;;;;;;;;;;3.62;100.00;100000.16;5016633;28;19932;-79
2021/10/19 14:41:35;;;;;;;;;;;;;;;3.51;100.00;100002.91;5015343;28;20379;-82
2021/10/19 14:44:00;;;;;;;;;;;;;;;3.42;100.00;100001.25;5034509;28;19921;-79
2021/10/19 14:46:25;;;;;;;;;;;;;;;3.30;100.00;99997.88;5034533;28;19917;-81
2021/10/19 14:48:51;;;;;;;;;;;;;;;3.20;100.00;99995.34;5034455;28;19923;-82
2021/10/19 14:51:16;;;;;;;;;;;;;;;3.09;100.00;99989.34;5015933;28;19927;-81
2021/10/19 14:53:41;;;;;;;;;;;;;;;3.03;100.00;99992.91;5033911;28;19928;-82
2021/10/19 14:56:07;;;;;;;;;;;;;;;3.02;100.00;99987.69;5014951;28;19921;-80
2021/10/19 14:58:32;;;;;;;;;;;;;;;2.95;100.00;99994.69;5012856;28;19921;-80
2021/10/19 15:00:58;;;;;;;;;;;;;;;2.96;100.00;99993.81;5013245;28;19917;-80
2021/10/19 15:03:24;;;;;;;;;;;;;;;2.87;100.00;99986.03;5012480;28;20424;-80
2021/10/19 15:05:50;;;;;;;;;;;;;;;2.81;100.00;99981.75;5011330;28;20012;-79
2021/10/19 15:08:15;;;;;;;;;;;;;;;2.82;100.00;99985.22;5012218;28;19968;-80
2021/10/19 15:10:40;;;;;;;;;;;;;;;2.85;100.00;99985.19;5012870;28;19948;-79
2021/10/19 15:13:06;;;;;;;;;;;;;;;2.79;100.00;99985.22;5007131;28;19929;-81
2021/10/19 15:15:31;;;;;;;;;;;;;;;2.68;100.00;99983.59;5012400;28;19926;-81
2021/10/19 15:17:56;;;;;;;;;;;;;;;2.69;99.98;99981.81;5011984;28;19917;-80
2021/10/19 15:20:22;;;;;;;;;;;;;;;2.66;99.08;99981.84;5011744;28;19925;-80
2021/10/19 15:22:47;;;;;;;;;;;;;;;2.54;98.55;99977.59;5013527;28;20430;-80
2021/10/19 15:25:12;;;;;;;;;;;;;;;2.52;97.96;99971.47;5012009;28;19981;-80
2021/10/19 15:27:42;;;;;;;;;;;;;;;2.59;97.94;99973.19;5012541;28;19922;-79
2021/10/19 15:30:07;;;;;;;;;;;;;;;2.50;97.68;99971.47;5012074;28;19936;-80
2021/10/19 15:32:33;;;;;;;;;;;;;;;2.46;97.16;99969.78;5012775;28;19922;-80
2021/10/19 15:34:58;;;;;;;;;;;;;;;2.35;96.94;99975.06;5013941;28;19918;-80
2021/10/19 15:37:24;;;;;;;;;;;;;;;2.43;96.82;99974.19;5012117;28;20376;-80
2021/10/19 15:39:49;;;;;;;;;;;;;;;2.33;96.49;99969.00;5012936;28;19921;-81
2021/10/19 15:42:14;;;;;;;;;;;;;;;2.35;96.42;99963.75;5011262;28;19922;-80
2021/10/19 15:44:40;;;;;;;;;;;;;;;2.31;95.96;99962.91;5013799;28;19924;-80
2021/10/19 15:47:06;;;;;;;;;;;;;;;2.20;95.64;99956.84;5013624;28;19926;-81
2021/10/19 15:49:31;;;;;;;;;;;;;;;2.23;95.60;99958.59;5013630;28;19921;-81
2021/10/19 15:51:56;;;;;;;;;;;;;;;2.16;95.27;99958.63;5012307;28;19924;-80
2021/10/19 15:54:21;;;;;;;;;;;;;;;2.12;95.32;99962.16;5012337;28;19924;-81
2021/10/19 15:56:47;;;;;;;;;;;;;;;2.07;95.08;99949.97;5012241;28;19961;-80
2021/10/19 15:59:13;;;;;;;;;;;;;;;2.12;95.05;99956.94;5010606;28;19927;-81
2021/10/19 16:01:39;;;;;;;;;;;;;;;2.02;94.52;99967.44;5015037;28;20015;-81
2021/10/19 16:04:04;;;;;;;;;;;;;;;2.00;94.44;99947.38;5033158;28;20300;-81
2021/10/19 16:06:30;;;;;;;;;;;;;;;2.02;94.40;99955.22;5025392;28;19917;-80
2021/10/19 16:08:55;;;;;;;;;;;;;;;2.01;94.02;99948.28;5014883;28;20009;-80
2021/10/19 16:11:20;;;;;;;;;;;;;;;1.91;94.28;99949.19;5013794;28;19957;-80
2021/10/19 16:13:45;;;;;;;;;;;;;;;1.92;93.99;99943.94;5032829;28;19925;-82
2021/10/19 16:16:11;;;;;;;;;;;;;;;1.93;93.80;99940.47;5032593;28;20391;-80
2021/10/19 16:18:36;;;;;;;;;;;;;;;1.81;93.53;99940.53;5031956;28;20408;-81
2021/10/19 16:21:02;;;;;;;;;;;;;;;1.70;93.43;99937.94;5032679;28;19917;-80
2021/10/19 16:23:29;;;;;;;;;;;;;;;1.77;93.25;99939.69;5014850;28;19946;-80
2021/10/19 16:25:54;;;;;;;;;;;;;;;1.75;92.94;99937.94;5031155;28;19913;-82
2021/10/19 16:28:20;;;;;;;;;;;;;;;1.71;92.41;99933.59;5032762;28;19921;-81
2021/10/19 16:30:46;;;;;;;;;;;;;;;1.68;92.35;99937.09;5032617;28;20351;-82
2021/10/19 16:33:11;;;;;;;;;;;;;;;1.71;92.02;99946.66;5032435;28;20423;-81
2021/10/19 16:35:37;;;;;;;;;;;;;;;1.65;91.90;99946.69;5032561;28;20007;-82
2021/10/19 16:38:02;;;;;;;;;;;;;;;1.64;92.08;99943.19;5032322;28;19917;-82
2021/10/19 16:40:27;;;;;;;;;;;;;;;1.58;91.61;99945.84;5032304;28;19921;-81
2021/10/19 16:42:53;;;;;;;;;;;;;;;1.53;91.82;99940.66;5031090;28;19917;-80
2021/10/19 16:45:18;;;;;;;;;;;;;;;1.60;92.42;99946.72;5032264;28;19921;-81
2021/10/19 16:47:44;;;;;;;;;;;;;;;1.73;94.65;99948.38;5032309;28;19917;-83
2021/10/19 16:50:10;;;;;;;;;;;;;;;1.91;96.19;99950.03;5032236;28;19921;-80
2021/10/19 16:52:36;;;;;;;;;;;;;;;2.20;98.46;99943.78;5032183;28;19921;-81
2021/10/19 16:55:02;;;;;;;;;;;;;;;2.49;100.00;99950.56;5031931;28;20361;-82
2021/10/19 16:57:27;;;;;;;;;;;;;;;2.66;100.00;99953.91;5009500;28;19921;-80
2021/10/19 16:59:52;;;;;;;;;;;;;;;2.72;100.00;99953.03;5012585;28;20297;-82
2021/10/19 17:02:18;;;;;;;;;;;;;;;2.86;100.00;99950.28;5012687;28;20025;-81
2021/10/19 17:04:43;;;;;;;;;;;;;;;2.91;100.00;99953.72;5011264;28;19924;-82
2021/10/19 17:07:09;;;;;;;;;;;;;;;2.91;100.00;99944.13;5012245;28;19925;-80
2021/10/19 17:09:34;;;;;;;;;;;;;;;3.02;100.00;99948.41;5012270;28;19988;-81
2021/10/19 17:11:59;;;;;;;;;;;;;;;3.07;100.00;99955.31;5011047;28;20532;-80
2021/10/19 17:14:24;;;;;;;;;;;;;;;3.11;100.00;99955.28;5010890;28;20288;-82
2021/10/19 17:16:50;;;;;;;;;;;;;;;3.18;100.00;99951.75;5012281;28;19922;-82
2021/10/19 17:19:15;;;;;;;;;;;;;;;3.16;100.00;99958.72;5012207;28;19921;-80
2021/10/19 17:21:40;;;;;;;;;;;;;;;3.22;100.00;99953.44;5012352;28;20292;-82
2021/10/19 17:24:09;;;;;;;;;;;;;;;3.21;100.00;99960.44;5012042;28;19928;-81
2021/10/19 17:26:34;;;;;;;;;;;;;;;3.25;100.00;99962.13;5010946;28;19925;-80
2021/10/19 17:28:59;;;;;;;;;;;;;;;3.27;100.00;99967.34;5013731;28;19918;-81
2021/10/19 17:31:25;;;;;;;;;;;;;;;3.28;100.00;99963.84;5016258;28;19979;-81
2021/10/19 17:33:50;;;;;;;;;;;;;;;3.29;100.00;99962.97;5016178;28;19917;-81
2021/10/19 17:36:15;;;;;;;;;;;;;;;3.37;100.00;99955.91;5015986;28;19932;-83
2021/10/19 17:38:41;;;;;;;;;;;;;;;3.37;100.00;99957.66;5016269;28;20293;-82
2021/10/19 17:41:07;;;;;;;;;;;;;;;3.38;100.00;99959.38;5013258;28;20019;-81
2021/10/19 17:43:32;;;;;;;;;;;;;;;3.37;100.00;99962.91;5014812;28;20396;-80
2021/10/19 17:45:57;;;;;;;;;;;;;;;3.38;100.00;99960.25;5016035;28;20020;-81
2021/10/19 17:48:22;;;;;;;;;;;;;;;3.41;100.00;99962.81;5015778;28;19921;-81
2021/10/19 17:50:49;;;;;;;;;;;;;;;3.39;100.00;99967.22;5015726;28;19960;-80
2021/10/19 17:53:14;;;;;;;;;;;;;;;3.43;100.00;99962.81;5015667;28;19925;-81
2021/10/19 17:55:39;;;;;;;;;;;;;;;3.40;100.00;99965.50;5015582;28;19993;-81
2021/10/19 17:58:04;;;;;;;;;;;;;;;3.38;100.00;99960.25;5024317;28;19928;-81
2021/10/19 18:00:30;;;;;;;;;;;;;;;3.42;100.00;99955.84;5035220;28;20433;-81
2021/10/19 18:02:55;;;;;;;;;;;;;;;3.39;100.00;99961.13;5001341;28;19929;-81